createdAt,value
2023-01-11T00:02:11.914Z,99787.00
2023-01-11T00:04:39.524Z,99795.13
2023-01-11T00:07:07.065Z,99803.00
2023-01-11T00:09:34.559Z,99794.13
2023-01-11T00:12:02.081Z,99779.91
2023-01-11T00:14:30.878Z,99771.19
2023-01-11T00:16:59.718Z,99763.03
2023-01-11T00:19:27.461Z,99762.22
2023-01-11T00:21:54.936Z,99763.91
2023-01-11T00:24:22.422Z,99753.38
2023-01-11T00:26:49.888Z,99763.97
2023-01-11T00:29:17.494Z,99754.25
2023-01-11T00:31:46.304Z,99744.56
2023-01-11T00:34:13.805Z,99738.31
2023-01-11T00:36:41.307Z,99748.94
2023-01-11T00:39:08.827Z,99736.59
2023-01-11T00:41:54.134Z,99740.16
2023-01-11T00:44:39.083Z,99739.22
2023-01-11T00:47:30.530Z,99739.16
2023-01-11T00:49:57.993Z,99729.50
2023-01-11T00:52:25.488Z,99726.91
2023-01-11T00:54:53.126Z,99736.38
2023-01-11T00:57:20.669Z,99728.47
2023-01-11T00:59:48.153Z,99713.38
2023-01-11T01:02:17.039Z,99724.06
2023-01-11T01:04:44.534Z,99728.47
2023-01-11T01:07:12.580Z,99703.78
2023-01-11T01:09:40.073Z,99698.41
2023-01-11T01:12:09.163Z,99693.13
2023-01-11T01:14:36.418Z,99691.28
2023-01-11T01:17:07.097Z,99685.25
2023-01-11T01:19:37.245Z,99690.59
2023-01-11T01:22:04.803Z,99688.66
2023-01-11T01:24:33.928Z,99701.06
2023-01-11T01:27:01.520Z,99694.88
2023-01-11T01:29:29.018Z,99690.38
2023-01-11T01:31:56.483Z,99700.97
2023-01-11T01:34:23.967Z,99701.91
2023-01-11T01:36:52.794Z,99706.19
2023-01-11T01:39:20.287Z,99697.34
2023-01-11T01:41:47.767Z,99683.16
2023-01-11T01:44:53.671Z,99684.06
2023-01-11T01:47:22.872Z,99691.19
2023-01-11T01:49:50.355Z,99686.63
2023-01-11T01:52:19.363Z,99695.53
2023-01-11T01:54:48.728Z,99689.31
2023-01-11T01:57:20.417Z,99691.94
2023-01-11T01:59:51.638Z,99691.03
2023-01-11T02:02:20.545Z,99691.91
2023-01-11T02:04:48.909Z,99680.38
2023-01-11T02:07:20.843Z,99685.66
2023-01-11T02:09:52.361Z,99679.50
2023-01-11T02:12:19.965Z,99678.56
2023-01-11T02:14:48.447Z,99670.66
2023-01-11T02:17:16.141Z,99676.03
2023-01-11T02:19:53.968Z,99672.38
2023-01-11T02:22:53.319Z,99659.97
2023-01-11T02:25:40.111Z,99648.44
2023-01-11T02:28:12.004Z,99644.97
2023-01-11T02:30:45.533Z,99635.97
2023-01-11T02:33:19.451Z,99638.56
2023-01-11T02:35:53.218Z,99634.19
2023-01-11T02:38:27.427Z,99633.25
2023-01-11T02:41:00.211Z,99625.28
2023-01-11T02:43:50.452Z,99642.09
2023-01-11T02:46:23.626Z,99633.22
2023-01-11T02:48:55.481Z,99635.13
2023-01-11T02:51:26.589Z,99626.97
2023-01-11T02:53:56.071Z,99623.38
2023-01-11T02:56:26.467Z,99624.34
2023-01-11T02:58:56.927Z,99615.38
2023-01-11T03:01:25.585Z,99613.63
2023-01-11T03:03:54.042Z,99610.03
2023-01-11T03:06:23.129Z,99606.63
2023-01-11T03:09:11.185Z,99599.53
2023-01-11T03:12:06.579Z,99599.41
2023-01-11T03:14:45.134Z,99595.91
2023-01-11T03:17:20.522Z,99590.69
2023-01-11T03:19:51.417Z,99592.38
2023-01-11T03:22:25.484Z,99594.28
2023-01-11T03:24:56.931Z,99581.69
2023-01-11T03:27:32.539Z,99559.72
2023-01-11T03:30:06.303Z,99578.31
2023-01-11T03:32:38.402Z,99588.91
2023-01-11T03:35:13.940Z,99582.59
2023-01-11T03:37:43.532Z,99598.69
2023-01-11T03:40:14.753Z,99587.94
2023-01-11T03:42:59.135Z,99578.28
2023-01-11T03:45:29.400Z,99567.56
2023-01-11T03:47:58.205Z,99565.00
2023-01-11T03:50:26.943Z,99560.53
2023-01-11T03:52:54.813Z,99560.50
2023-01-11T03:55:26.516Z,99550.84
2023-01-11T03:57:55.033Z,99548.97
2023-01-11T04:00:23.721Z,99539.13
2023-01-11T04:02:53.931Z,99541.75
2023-01-11T04:05:21.516Z,99539.09
2023-01-11T04:07:49.031Z,99551.44
2023-01-11T04:10:16.971Z,99545.28
2023-01-11T04:12:59.438Z,99545.31
2023-01-11T04:15:26.936Z,99551.44
2023-01-11T04:17:56.195Z,99554.06
2023-01-11T04:20:23.649Z,99548.69
2023-01-11T04:22:51.104Z,99554.91
2023-01-11T04:25:18.688Z,99549.63
2023-01-11T04:27:46.157Z,99547.81
2023-01-11T04:30:14.060Z,99542.50
2023-01-11T04:32:41.722Z,99541.44
2023-01-11T04:35:10.736Z,99554.91
2023-01-11T04:37:38.252Z,99553.22
2023-01-11T04:40:06.941Z,99538.09
2023-01-11T04:42:33.503Z,99538.00
2023-01-11T04:45:00.981Z,99544.28
2023-01-11T04:47:28.649Z,99536.19
2023-01-11T04:49:56.163Z,99535.28
2023-01-11T04:52:24.961Z,99534.34
2023-01-11T04:54:53.953Z,99529.00
2023-01-11T04:57:21.493Z,99514.97
2023-01-11T04:59:49.401Z,99506.81
2023-01-11T05:02:17.537Z,99503.19
2023-01-11T05:04:45.363Z,99516.53
2023-01-11T05:07:12.886Z,99509.47
2023-01-11T05:09:41.690Z,99511.31
2023-01-11T05:12:09.172Z,99512.00
2023-01-11T05:14:36.640Z,99505.94
2023-01-11T05:17:04.392Z,99506.59
2023-01-11T05:19:31.857Z,99497.88
2023-01-11T05:21:59.317Z,99498.72
2023-01-11T05:24:26.788Z,99503.06
2023-01-11T05:26:55.605Z,99503.91
2023-01-11T05:29:23.310Z,99502.06
2023-01-11T05:31:50.914Z,99499.38
2023-01-11T05:34:18.890Z,99509.03
2023-01-11T05:36:46.426Z,99489.59
2023-01-11T05:39:14.556Z,99480.66
2023-01-11T05:41:42.019Z,99478.00
2023-01-11T05:44:30.133Z,99484.19
2023-01-11T05:46:57.594Z,99467.41
2023-01-11T05:49:25.169Z,99470.91
2023-01-11T05:51:53.135Z,99466.34
2023-01-11T05:54:20.640Z,99471.66
2023-01-11T05:56:48.151Z,99466.28
2023-01-11T05:59:17.008Z,99469.00
2023-01-11T06:01:45.491Z,99465.47
2023-01-11T06:04:13.023Z,99473.50
2023-01-11T06:06:40.959Z,99461.09
2023-01-11T06:09:08.508Z,99462.88
2023-01-11T06:11:36.029Z,99463.88
2023-01-11T06:14:03.512Z,99452.28
2023-01-11T06:16:32.377Z,99454.03
2023-01-11T06:18:59.885Z,99453.94
2023-01-11T06:21:27.489Z,99458.38
2023-01-11T06:23:55.347Z,99459.38
2023-01-11T06:26:24.002Z,99460.03
2023-01-11T06:28:51.974Z,99460.94
2023-01-11T06:31:20.285Z,99455.63
2023-01-11T06:33:49.160Z,99464.34
2023-01-11T06:36:16.693Z,99462.50
2023-01-11T06:38:44.401Z,99451.88
2023-01-11T06:41:12.806Z,99450.84
2023-01-11T06:43:41.787Z,99449.81
2023-01-11T06:46:13.384Z,99468.50
2023-01-11T06:48:41.177Z,99468.38
2023-01-11T06:51:12.008Z,99468.44
2023-01-11T06:53:40.331Z,99478.16
2023-01-11T06:56:08.867Z,99464.91
2023-01-11T06:58:37.706Z,99457.75
2023-01-11T07:01:05.493Z,99456.84
2023-01-11T07:03:33.106Z,99462.06
2023-01-11T07:06:00.603Z,99467.41
2023-01-11T07:08:29.411Z,99462.06
2023-01-11T07:10:57.180Z,99461.16
2023-01-11T07:13:24.742Z,99457.56
2023-01-11T07:15:54.202Z,99463.78
2023-01-11T07:18:21.885Z,99455.78
2023-01-11T07:20:49.406Z,99457.53
2023-01-11T07:23:16.959Z,99465.56
2023-01-11T07:25:45.811Z,99461.13
2023-01-11T07:28:13.405Z,99457.50
2023-01-11T07:30:56.843Z,99466.38
2023-01-11T07:33:26.751Z,99475.22
2023-01-11T07:35:54.364Z,99462.72
2023-01-11T07:38:22.208Z,99461.75
2023-01-11T07:40:51.220Z,99459.19
2023-01-11T07:43:19.677Z,99463.53
2023-01-11T07:45:49.395Z,99457.41
2023-01-11T07:48:20.937Z,99459.91
2023-01-11T07:50:49.510Z,99452.78
2023-01-11T07:53:18.964Z,99461.59
2023-01-11T07:55:47.124Z,99456.19
2023-01-11T07:58:16.668Z,99464.09
2023-01-11T08:00:46.082Z,99451.63
2023-01-11T08:03:13.913Z,99453.38
2023-01-11T08:05:41.526Z,99458.63
2023-01-11T08:08:09.401Z,99455.84
2023-01-11T08:10:37.532Z,99462.91
2023-01-11T08:13:25.595Z,99467.19
2023-01-11T08:15:54.413Z,99466.31
2023-01-11T08:18:21.983Z,99465.28
2023-01-11T08:20:52.791Z,99460.03
2023-01-11T08:23:20.512Z,99467.13
2023-01-11T08:25:48.047Z,99459.88
2023-01-11T08:28:15.538Z,99468.75
2023-01-11T08:30:44.304Z,99472.22
2023-01-11T08:33:13.199Z,99479.28
2023-01-11T08:35:41.127Z,99477.38
2023-01-11T08:38:08.676Z,99476.50
2023-01-11T08:40:36.260Z,99475.56
2023-01-11T08:43:04.124Z,99474.69
2023-01-11T08:45:31.604Z,99482.69
2023-01-11T08:48:00.943Z,99481.78
2023-01-11T08:50:29.721Z,99482.63
2023-01-11T08:52:57.278Z,99480.94
2023-01-11T08:55:24.927Z,99491.47
2023-01-11T08:57:52.402Z,99479.91
2023-01-11T09:00:21.095Z,99480.28
2023-01-11T09:02:48.644Z,99482.69
2023-01-11T09:05:18.176Z,99490.75
2023-01-11T09:07:47.546Z,99480.25
2023-01-11T09:10:15.609Z,99484.91
2023-01-11T09:12:43.079Z,99488.88
2023-01-11T09:15:11.471Z,99484.44
2023-01-11T09:17:39.287Z,99485.97
2023-01-11T09:20:08.050Z,99493.34
2023-01-11T09:22:35.761Z,99503.03
2023-01-11T09:25:05.431Z,99494.16
2023-01-11T09:27:33.280Z,99497.59
2023-01-11T09:30:01.544Z,99500.19
2023-01-11T09:32:29.055Z,99504.63
2023-01-11T09:34:58.048Z,99502.03
2023-01-11T09:37:26.006Z,99502.03
2023-01-11T09:39:53.484Z,99488.66
2023-01-11T09:42:32.272Z,99492.16
2023-01-11T09:45:05.771Z,99497.50
2023-01-11T09:47:38.536Z,99488.88
2023-01-11T09:50:11.351Z,99484.00
2023-01-11T09:52:42.160Z,99500.97
2023-01-11T09:55:15.461Z,99502.94
2023-01-11T09:57:51.922Z,99500.91
2023-01-11T10:00:25.421Z,99501.59
2023-01-11T10:03:15.413Z,99490.88
2023-01-11T10:05:51.900Z,99495.25
2023-01-11T10:18:26.033Z,99491.53
2023-01-11T10:18:33.349Z,99490.47
2023-01-11T10:20:21.284Z,99482.56
2023-01-11T10:22:49.650Z,99473.66
2023-01-11T10:25:23.591Z,99470.94
2023-01-11T10:27:56.616Z,99471.81
2023-01-11T10:30:41.788Z,99477.00
2023-01-11T10:33:29.921Z,99478.75
2023-01-11T10:36:13.536Z,99476.88
2023-01-11T10:38:54.568Z,99489.28
2023-01-11T10:41:33.820Z,99480.41
2023-01-11T10:44:05.922Z,99478.63
2023-01-11T10:46:39.622Z,99479.47
2023-01-11T10:49:22.375Z,99481.38
2023-01-11T10:51:50.293Z,99472.28
2023-01-11T10:54:20.095Z,99477.63
2023-01-11T10:57:03.260Z,99475.94
2023-01-11T10:59:43.627Z,99461.63
2023-01-11T11:02:22.175Z,99460.63
2023-01-11T11:05:05.298Z,99459.88
2023-01-11T11:07:38.422Z,99453.69
2023-01-11T11:10:11.440Z,99450.88
2023-01-11T11:12:43.630Z,99453.41
2023-01-11T11:15:14.341Z,99445.47
2023-01-11T11:17:47.944Z,99436.75
2023-01-11T11:20:17.669Z,99446.41
2023-01-11T11:22:45.960Z,99446.31
2023-01-11T11:25:16.934Z,99442.94
2023-01-11T11:27:46.095Z,99444.63
2023-01-11T11:30:15.164Z,99438.56
2023-01-11T11:32:53.364Z,99441.94
2023-01-11T11:35:31.959Z,99441.88
2023-01-11T11:37:59.700Z,99438.22
2023-01-11T11:40:33.365Z,99431.84
2023-01-11T11:43:19.252Z,99423.88
2023-01-11T11:45:55.148Z,99430.00
2023-01-11T11:48:25.120Z,99425.66
2023-01-11T11:50:54.350Z,99417.56
2023-01-11T11:53:30.200Z,99411.44
2023-01-11T11:55:57.879Z,99412.25
2023-01-11T11:58:26.672Z,99412.41
2023-01-11T12:00:54.436Z,99405.00
2023-01-11T12:03:28.267Z,99392.56
2023-01-11T12:05:58.684Z,99397.03
2023-01-11T12:08:26.274Z,99400.59
2023-01-11T12:10:57.418Z,99402.47
2023-01-11T12:13:28.218Z,99403.88
2023-01-11T12:15:59.939Z,99405.69
2023-01-11T12:18:32.844Z,99409.16
2023-01-11T12:21:20.429Z,99418.00
2023-01-11T12:23:48.311Z,99414.50
2023-01-11T12:26:22.551Z,99411.81
2023-01-11T12:29:07.775Z,99420.69
2023-01-11T12:31:43.692Z,99419.69
2023-01-11T12:34:27.207Z,99419.63
2023-01-11T12:36:59.616Z,99424.06
2023-01-11T12:39:32.774Z,99424.88
2023-01-11T12:42:08.679Z,99423.13
2023-01-11T12:44:57.918Z,99429.25
2023-01-11T12:47:45.816Z,99422.25
2023-01-11T12:50:18.859Z,99425.00
2023-01-11T12:52:56.861Z,99430.16
2023-01-11T12:55:34.019Z,99436.31
2023-01-11T12:58:08.309Z,99428.25
2023-01-11T13:01:10.301Z,99426.59
2023-01-11T13:03:46.369Z,99426.59
2023-01-11T13:06:17.645Z,99436.31
2023-01-11T13:08:53.169Z,99431.84
2023-01-11T13:11:37.060Z,99438.84
2023-01-11T13:14:15.745Z,99436.19
2023-01-11T13:16:50.079Z,99441.59
2023-01-11T13:19:20.416Z,99450.38
2023-01-11T13:21:53.386Z,99451.31
2023-01-11T13:24:26.458Z,99445.91
2023-01-11T13:26:56.124Z,99452.13
2023-01-11T13:29:26.886Z,99447.78
2023-01-11T13:31:55.986Z,99443.41
2023-01-11T13:34:25.994Z,99454.84
2023-01-11T13:36:58.907Z,99454.06
2023-01-11T13:39:28.379Z,99460.19
2023-01-11T13:41:59.226Z,99461.91
2023-01-11T13:44:29.648Z,99453.13
2023-01-11T13:47:01.716Z,99459.41
2023-01-11T13:49:39.820Z,99467.34
2023-01-11T13:52:13.476Z,99465.63
2023-01-11T13:54:47.254Z,99456.66
2023-01-11T13:57:20.071Z,99462.75
2023-01-11T13:59:47.898Z,99465.41
2023-01-11T14:02:18.955Z,99470.75
2023-01-11T14:04:51.811Z,99480.38
2023-01-11T14:07:22.547Z,99483.22
2023-01-11T14:10:07.601Z,99491.88
2023-01-11T14:12:48.408Z,99503.63
2023-01-11T14:15:27.412Z,99507.19
2023-01-11T14:18:09.214Z,99500.91
2023-01-11T14:20:44.016Z,99514.28
2023-01-11T14:23:14.536Z,99521.41
2023-01-11T14:25:53.894Z,99525.84
2023-01-11T14:28:35.668Z,99520.41
2023-01-11T14:31:15.554Z,99531.19
2023-01-11T14:33:58.323Z,99529.38
2023-01-11T14:36:59.606Z,99534.59
2023-01-11T14:39:59.407Z,99532.88
2023-01-11T14:42:38.582Z,99525.75
2023-01-11T14:45:26.422Z,99528.41
2023-01-11T14:48:09.209Z,99536.41
2023-01-11T14:50:45.894Z,99534.72
2023-01-11T14:53:18.480Z,99528.66
2023-01-11T14:55:49.077Z,99538.53
2023-01-11T14:58:18.961Z,99534.97
2023-01-11T15:01:06.308Z,99544.56
2023-01-11T15:03:43.397Z,99551.72
2023-01-11T15:06:14.706Z,99558.00
2023-01-11T15:08:45.543Z,99555.41
2023-01-11T15:11:35.866Z,99552.06
2023-01-11T15:14:07.489Z,99566.22
2023-01-11T15:16:53.766Z,99572.69
2023-01-11T15:19:31.785Z,99566.41
2023-01-11T15:22:02.744Z,99579.91
2023-01-11T15:24:31.918Z,99575.53
2023-01-11T15:27:02.261Z,99576.44
2023-01-11T15:29:32.114Z,99589.81
2023-01-11T15:32:15.170Z,99590.66
2023-01-11T15:34:44.416Z,99597.06
2023-01-11T15:37:29.147Z,99604.97
2023-01-11T15:39:59.536Z,99609.56
2023-01-11T15:43:11.412Z,99615.91
2023-01-11T15:46:36.792Z,99617.78
2023-01-11T15:49:49.429Z,99624.97
2023-01-11T15:52:53.359Z,99628.44
2023-01-11T15:55:59.700Z,99641.06
2023-01-11T15:59:02.388Z,99642.06
2023-01-11T16:01:30.357Z,99652.81
2023-01-11T16:04:02.463Z,99654.72
2023-01-11T16:06:43.946Z,99660.91
2023-01-11T16:09:23.539Z,99661.84
2023-01-11T16:11:55.450Z,99666.47
2023-01-11T16:14:35.490Z,99657.59
2023-01-11T16:17:03.635Z,99670.06
2023-01-11T16:19:33.598Z,99677.25
2023-01-11T16:22:05.409Z,99672.91
2023-01-11T16:24:35.586Z,99683.63
2023-01-11T16:27:04.591Z,99681.03
2023-01-11T16:29:38.306Z,99682.88
2023-01-11T16:32:07.845Z,99688.22
2023-01-11T16:34:41.841Z,99687.38
2023-01-11T16:37:21.212Z,99682.16
2023-01-11T16:39:49.877Z,99695.59
2023-01-11T16:42:17.424Z,99700.00
2023-01-11T16:44:52.610Z,99698.22
2023-01-11T16:47:21.543Z,99698.31
2023-01-11T16:49:52.159Z,99699.19
2023-01-11T16:52:52.744Z,99713.53
2023-01-11T16:55:30.244Z,99718.03
2023-01-11T16:58:00.715Z,99720.75
2023-01-11T17:00:35.674Z,99727.91
2023-01-11T17:03:19.401Z,99720.81
2023-01-11T17:05:58.744Z,99728.03
2023-01-11T17:08:29.407Z,99726.28
2023-01-11T17:10:59.800Z,99726.28
2023-01-11T17:13:55.743Z,99729.81
2023-01-11T17:16:27.984Z,99736.97
2023-01-11T17:18:56.029Z,99744.97
2023-01-11T17:21:26.028Z,99742.31
2023-01-11T17:23:54.980Z,99741.47
2023-01-11T17:26:24.849Z,99743.28
2023-01-11T17:28:55.783Z,99742.41
2023-01-11T17:31:26.603Z,99736.25
2023-01-11T17:34:03.315Z,99734.56
2023-01-11T17:36:31.357Z,99728.31
2023-01-11T17:38:59.129Z,99729.31
2023-01-11T17:41:45.276Z,99729.41
2023-01-11T17:44:35.353Z,99748.16
2023-01-11T17:47:07.144Z,99745.53
2023-01-11T17:49:35.643Z,99757.97
2023-01-11T17:52:10.695Z,99751.81
2023-01-11T17:54:38.157Z,99760.81
2023-01-11T17:57:06.391Z,99764.41
2023-01-11T17:59:34.506Z,99760.88
2023-01-11T18:02:04.557Z,99765.28
2023-01-11T18:04:32.506Z,99772.41
2023-01-11T18:07:07.122Z,99769.78
2023-01-11T18:09:37.641Z,99769.81
2023-01-11T18:12:07.733Z,99770.69
2023-01-11T18:14:40.321Z,99769.00
2023-01-11T18:17:36.757Z,99779.63
2023-01-11T18:20:37.894Z,99777.06
2023-01-11T18:23:18.457Z,99784.06
2023-01-11T18:25:46.795Z,99787.66
2023-01-11T18:28:26.851Z,99796.56
2023-01-11T18:30:57.829Z,99793.97
2023-01-11T18:33:29.711Z,99793.09
2023-01-11T18:35:59.677Z,99791.31
2023-01-11T18:38:29.609Z,99795.75
2023-01-11T18:40:58.620Z,99801.13
2023-01-11T18:43:28.281Z,99806.44
2023-01-11T18:45:56.303Z,99798.53
2023-01-11T18:48:24.003Z,99795.94
2023-01-11T18:50:54.526Z,99803.91
2023-01-11T18:53:23.623Z,99815.47
2023-01-11T18:55:51.124Z,99814.63
2023-01-11T18:58:18.600Z,99813.78
2023-01-11T19:00:46.078Z,99815.53
2023-01-11T19:05:46.576Z,99810.25
2023-01-11T19:08:15.584Z,99821.75
2023-01-11T19:10:43.132Z,99823.59
2023-01-11T19:13:10.777Z,99829.84
2023-01-11T19:15:38.284Z,99832.53
2023-01-11T19:18:05.993Z,99840.50
2023-01-11T19:20:33.601Z,99836.06
2023-01-11T19:23:01.074Z,99837.88
2023-01-11T19:25:33.127Z,99837.00
2023-01-11T19:28:00.656Z,99840.50
2023-01-11T19:30:28.138Z,99837.00
2023-01-11T19:32:55.793Z,99837.91
2023-01-11T19:35:23.814Z,99829.03
2023-01-11T19:37:51.766Z,99821.06
2023-01-11T19:40:21.256Z,99817.56
2023-01-11T19:42:52.313Z,99816.75
2023-01-11T19:45:19.951Z,99813.19
2023-01-11T19:47:47.981Z,99821.19
2023-01-11T19:50:16.895Z,99815.88
2023-01-11T19:52:45.050Z,99815.03
2023-01-11T19:55:12.551Z,99813.28
2023-01-11T19:57:41.441Z,99812.38
2023-01-11T20:00:14.284Z,99813.28
2023-01-11T20:02:42.289Z,99811.56
2023-01-11T20:05:10.206Z,99826.66
2023-01-11T20:07:37.718Z,99825.72
2023-01-11T20:10:05.864Z,99825.78
2023-01-11T20:12:33.375Z,99836.44
2023-01-11T20:15:01.451Z,99832.84
2023-01-11T20:17:30.318Z,99834.59
2023-01-11T20:19:57.788Z,99832.84
2023-01-11T20:22:25.666Z,99818.63
2023-01-11T20:24:53.168Z,99819.50
2023-01-11T20:27:20.768Z,99821.31
2023-01-11T20:29:48.320Z,99812.56
2023-01-11T20:32:39.087Z,99820.38
2023-01-11T20:35:06.810Z,99825.94
2023-01-11T20:37:34.517Z,99819.81
2023-01-11T20:40:01.998Z,99814.41
2023-01-11T20:42:29.518Z,99817.06
2023-01-11T20:44:56.992Z,99815.44
2023-01-11T20:47:25.119Z,99820.72
2023-01-11T20:49:52.581Z,99813.84
2023-01-11T20:52:21.370Z,99812.97
2023-01-11T20:54:48.832Z,99824.69
2023-01-11T20:57:16.311Z,99821.03
2023-01-11T20:59:43.782Z,99820.03
2023-01-11T21:02:13.509Z,99805.84
2023-01-11T21:04:40.980Z,99818.25
2023-01-11T21:07:08.470Z,99819.19
2023-01-11T21:09:37.220Z,99814.72
2023-01-11T21:12:05.182Z,99812.91
2023-01-11T21:14:32.663Z,99809.31
2023-01-11T21:17:00.142Z,99812.06
2023-01-11T21:19:27.609Z,99806.63
2023-01-11T21:21:55.090Z,99803.19
2023-01-11T21:24:22.725Z,99801.50
2023-01-11T21:26:51.634Z,99808.56
2023-01-11T21:29:19.169Z,99798.91
2023-01-11T21:31:46.686Z,99779.44
2023-01-11T21:34:14.975Z,99782.13
2023-01-11T21:36:43.782Z,99776.91
2023-01-11T21:39:13.450Z,99768.84
2023-01-11T21:41:55.994Z,99766.13
2023-01-11T21:44:28.144Z,99769.69
2023-01-11T21:46:55.824Z,99748.59
2023-01-11T21:49:24.262Z,99751.28
2023-01-11T21:51:52.177Z,99757.56
2023-01-11T21:54:19.938Z,99754.84
2023-01-11T21:56:48.066Z,99748.75
2023-01-11T21:59:15.881Z,99748.84
2023-01-11T22:01:49.076Z,99753.28
2023-01-11T22:04:18.110Z,99748.94
2023-01-11T22:06:50.956Z,99753.22
2023-01-11T22:09:18.559Z,99762.97
2023-01-11T22:11:46.066Z,99760.22
2023-01-11T22:14:13.530Z,99758.38
2023-01-11T22:16:41.583Z,99755.06
2023-01-11T22:19:10.423Z,99761.28
2023-01-11T22:21:38.129Z,99754.19
2023-01-11T22:24:08.899Z,99751.28
2023-01-11T22:26:38.785Z,99755.00
2023-01-11T22:29:14.759Z,99761.94
2023-01-11T22:31:45.132Z,99756.88
2023-01-11T22:34:14.747Z,99760.34
2023-01-11T22:36:42.722Z,99764.75
2023-01-11T22:39:10.381Z,99756.84
2023-01-11T22:41:39.891Z,99751.59
2023-01-11T22:44:07.788Z,99765.72
2023-01-11T22:46:35.587Z,99765.78
2023-01-11T22:49:03.144Z,99764.03
2023-01-11T22:51:31.936Z,99750.00
2023-01-11T22:53:59.467Z,99756.31
2023-01-11T22:56:29.244Z,99751.88
2023-01-11T22:58:58.340Z,99748.41
2023-01-11T23:01:27.853Z,99745.91
2023-01-11T23:03:57.003Z,99753.75
2023-01-11T23:06:26.451Z,99732.66
2023-01-11T23:08:55.737Z,99728.88
2023-01-11T23:11:42.379Z,99736.19
2023-01-11T23:14:11.462Z,99731.75
2023-01-11T23:16:39.548Z,99730.03
2023-01-11T23:19:08.702Z,99732.72
2023-01-11T23:21:36.704Z,99718.47
2023-01-11T23:24:06.450Z,99711.25
2023-01-11T23:26:33.934Z,99704.13
2023-01-11T23:29:01.416Z,99704.81
2023-01-11T23:31:29.501Z,99703.97
2023-01-11T23:33:58.996Z,99706.53
2023-01-11T23:36:28.637Z,99699.41
2023-01-11T23:38:56.098Z,99700.34
2023-01-11T23:41:43.217Z,99693.16
2023-01-11T23:44:12.611Z,99688.66
2023-01-11T23:46:58.304Z,99687.63
2023-01-11T23:49:26.078Z,99686.81
2023-01-11T23:51:53.901Z,99675.25
2023-01-11T23:54:21.546Z,99669.88
2023-01-11T23:56:50.341Z,99666.31
2023-01-11T23:59:17.861Z,99649.47
